Time;durP1;ratioP1;P1;durP2;ratioP2;P2;SDS_P1;SDS_P2;PMS_P1;PMS_P2;Temp;Humidity;BMP_temperature;BMP_pressure;BME280_temperature;BME280_humidity;BME280_pressure;Samples;Min_cycle;Max_cycle;Signal;HPM_P1;HPM_P2
2021/12/14 00:00:46;;;;;;;8.10;4.10;;;;;;;;;;5090392;28;20028;-64
2021/12/14 00:03:15;;;;;;;6.93;4.13;;;;;;;;;;5092399;28;20039;-64
2021/12/14 00:05:42;;;;;;;8.00;4.47;;;;;;;;;;5091797;28;20048;-67
2021/12/14 00:08:12;;;;;;;8.02;4.43;;;;;;;;;;5093405;28;20032;-64
2021/12/14 00:10:58;;;;;;;6.30;4.25;;;;;;;;;;5094019;28;20106;-64
2021/12/14 00:13:45;;;;;;;7.57;4.15;;;;;;;;;;5074052;28;20064;-63
2021/12/14 00:16:12;;;;;;;6.90;4.30;;;;;;;;;;5089822;28;20035;-67
2021/12/14 00:18:39;;;;;;;9.48;4.38;;;;;;;;;;5089583;28;20040;-64
2021/12/14 00:21:18;;;;;;;8.23;4.45;;;;;;;;;;5091906;28;20473;-65
2021/12/14 00:26:27;;;;;;;13.77;4.60;;;;;;;;;;5091454;28;20126;-63
2021/12/14 00:28:53;;;;;;;7.63;4.47;;;;;;;;;;5090062;28;20059;-64
2021/12/14 00:31:19;;;;;;;8.63;4.90;;;;;;;;;;5093254;28;20520;-63
2021/12/14 00:33:54;;;;;;;8.48;4.32;;;;;;;;;;5090811;28;20053;-67
2021/12/14 00:36:21;;;;;;;9.18;4.72;;;;;;;;;;5091927;28;20116;-64
2021/12/14 00:38:54;;;;;;;6.82;4.60;;;;;;;;;;5092036;28;20529;-67
2021/12/14 00:41:23;;;;;;;9.57;5.20;;;;;;;;;;5091561;28;20046;-64
2021/12/14 00:43:48;;;;;;;7.50;4.45;;;;;;;;;;5092823;28;20031;-63
2021/12/14 00:46:17;;;;;;;11.00;4.80;;;;;;;;;;5092458;28;20035;-63
2021/12/14 00:48:43;;;;;;;8.30;4.78;;;;;;;;;;5090338;28;20161;-63
2021/12/14 00:51:10;;;;;;;8.18;4.80;;;;;;;;;;5090686;28;20032;-64
2021/12/14 00:53:36;;;;;;;9.30;4.90;;;;;;;;;;5076416;28;21017;-64
2021/12/14 00:56:05;;;;;;;8.23;4.95;;;;;;;;;;5091916;28;20031;-64
2021/12/14 00:58:31;;;;;;;8.55;5.10;;;;;;;;;;5090950;28;20032;-64
2021/12/14 01:01:21;;;;;;;7.72;5.25;;;;;;;;;;5085509;28;20373;-63
2021/12/14 01:03:52;;;;;;;9.65;5.13;;;;;;;;;;5076916;28;20032;-67
2021/12/14 01:06:19;;;;;;;8.32;5.00;;;;;;;;;;5088385;28;20040;-64
2021/12/14 01:08:48;;;;;;;7.70;4.93;;;;;;;;;;5090262;28;20020;-67
2021/12/14 01:11:21;;;;;;;8.40;4.82;;;;;;;;;;5091435;28;20056;-63
2021/12/14 01:13:59;;;;;;;8.02;4.97;;;;;;;;;;5092561;28;20032;-67
2021/12/14 01:16:36;;;;;;;7.15;4.63;;;;;;;;;;5090589;28;20047;-64
2021/12/14 01:19:15;;;;;;;7.75;4.50;;;;;;;;;;5086781;28;20034;-63
2021/12/14 01:25:00;;;;;;;8.85;4.53;;;;;;;;;;5087921;28;20028;-63
2021/12/14 01:27:40;;;;;;;9.20;4.60;;;;;;;;;;5091279;28;20052;-63
2021/12/14 01:30:32;;;;;;;7.47;4.13;;;;;;;;;;5087483;28;20036;-65
2021/12/14 01:33:02;;;;;;;8.23;4.32;;;;;;;;;;5086018;28;20043;-64
2021/12/14 01:35:32;;;;;;;8.02;4.13;;;;;;;;;;5089211;28;20397;-63
2021/12/14 01:38:01;;;;;;;8.15;4.35;;;;;;;;;;5088955;28;20032;-64
2021/12/14 01:40:53;;;;;;;6.20;3.95;;;;;;;;;;5084629;28;20021;-63
2021/12/14 01:43:27;;;;;;;8.02;4.35;;;;;;;;;;5081150;28;20060;-63
2021/12/14 01:45:54;;;;;;;7.35;4.03;;;;;;;;;;5090958;28;20040;-64
2021/12/14 01:48:20;;;;;;;7.35;4.22;;;;;;;;;;5092561;28;20032;-66
2021/12/14 01:50:53;;;;;;;8.18;4.57;;;;;;;;;;5092172;28;20046;-64
2021/12/14 01:53:20;;;;;;;8.45;4.15;;;;;;;;;;5093446;28;20035;-63
2021/12/14 01:55:53;;;;;;;7.85;4.25;;;;;;;;;;5089164;28;20024;-64
2021/12/14 01:58:21;;;;;;;6.88;4.35;;;;;;;;;;5090026;28;20492;-64
2021/12/14 02:00:55;;;;;;;7.63;4.40;;;;;;;;;;5090386;28;20039;-64
2021/12/14 02:03:29;;;;;;;7.63;4.00;;;;;;;;;;5091114;28;21671;-67
2021/12/14 02:05:55;;;;;;;7.25;4.22;;;;;;;;;;5092136;28;20028;-63
2021/12/14 02:08:25;;;;;;;10.35;4.97;;;;;;;;;;5090366;28;20550;-64
2021/12/14 02:10:52;;;;;;;9.17;4.57;;;;;;;;;;5087795;28;20028;-67
2021/12/14 02:13:37;;;;;;;8.10;4.60;;;;;;;;;;5090520;28;20736;-64
2021/12/14 02:16:05;;;;;;;7.65;4.32;;;;;;;;;;5079601;28;20039;-64
2021/12/14 02:18:31;;;;;;;7.28;4.43;;;;;;;;;;5088930;28;20040;-63
2021/12/14 02:21:01;;;;;;;11.80;5.15;;;;;;;;;;5089754;28;20038;-64
2021/12/14 02:23:28;;;;;;;6.43;4.20;;;;;;;;;;5090866;28;20435;-63
2021/12/14 02:25:58;;;;;;;8.00;4.43;;;;;;;;;;5089775;28;20040;-65
2021/12/14 02:28:24;;;;;;;8.93;4.80;;;;;;;;;;5088989;28;20024;-63
2021/12/14 02:30:53;;;;;;;6.90;4.53;;;;;;;;;;5091351;28;20036;-66
2021/12/14 02:33:25;;;;;;;7.88;4.68;;;;;;;;;;5088087;28;20118;-63
2021/12/14 02:35:52;;;;;;;8.25;4.20;;;;;;;;;;5073387;28;20028;-66
2021/12/14 02:38:18;;;;;;;8.75;4.90;;;;;;;;;;5089481;28;20036;-63
2021/12/14 02:40:57;;;;;;;8.40;5.10;;;;;;;;;;5090637;28;20462;-63
2021/12/14 02:43:30;;;;;;;10.43;4.28;;;;;;;;;;5091686;28;20035;-63
2021/12/14 02:46:25;;;;;;;7.88;4.93;;;;;;;;;;5090388;28;20028;-64
2021/12/14 02:48:56;;;;;;;10.23;5.00;;;;;;;;;;5089978;28;20048;-66
2021/12/14 02:51:24;;;;;;;7.93;4.65;;;;;;;;;;5090474;28;20032;-63
2021/12/14 02:53:56;;;;;;;8.63;4.78;;;;;;;;;;5089644;28;20036;-63
2021/12/14 02:56:27;;;;;;;9.23;5.28;;;;;;;;;;5081422;28;20060;-64
2021/12/14 02:59:00;;;;;;;;;;;;;;;;;;5091299;28;20042;-64
2021/12/14 03:01:27;;;;;;;8.10;4.65;;;;;;;;;;5090983;28;19912;-64
2021/12/14 03:03:58;;;;;;;11.18;5.47;;;;;;;;;;5090403;28;20036;-67
2021/12/14 03:06:25;;;;;;;8.80;5.22;;;;;;;;;;5088988;28;20107;-64
2021/12/14 03:09:08;;;;;;;10.45;5.63;;;;;;;;;;5091454;28;20110;-65
2021/12/14 03:11:36;;;;;;;11.15;5.65;;;;;;;;;;5089662;28;20047;-63
2021/12/14 03:14:02;;;;;;;10.98;5.90;;;;;;;;;;5088487;28;20083;-63
2021/12/14 03:16:31;;;;;;;10.73;5.40;;;;;;;;;;5087686;28;20109;-63
2021/12/14 03:18:58;;;;;;;9.98;4.93;;;;;;;;;;5090515;28;20047;-67
2021/12/14 03:21:27;;;;;;;9.65;5.72;;;;;;;;;;5090865;28;20055;-63
2021/12/14 03:24:04;;;;;;;13.38;6.15;;;;;;;;;;5087535;28;20385;-66
2021/12/14 03:26:32;;;;;;;12.98;6.35;;;;;;;;;;5084911;28;20051;-63
2021/12/14 03:29:03;;;;;;;10.63;5.80;;;;;;;;;;5090485;28;20416;-63
2021/12/14 03:31:48;;;;;;;10.27;6.13;;;;;;;;;;5087855;28;20142;-62
2021/12/14 03:34:32;;;;;;;13.07;6.13;;;;;;;;;;5091016;28;20160;-63
2021/12/14 03:37:08;;;;;;;13.10;6.75;;;;;;;;;;5087023;27;20023;-63
2021/12/14 03:39:39;;;;;;;11.05;6.28;;;;;;;;;;5094624;28;20027;-63
2021/12/14 03:42:10;;;;;;;14.70;6.50;;;;;;;;;;5082698;28;20053;-63
2021/12/14 03:44:47;;;;;;;13.60;6.90;;;;;;;;;;5093375;28;20419;-63
2021/12/14 03:47:23;;;;;;;11.25;6.60;;;;;;;;;;5094399;28;20064;-62
2021/12/14 03:50:01;;;;;;;10.40;6.55;;;;;;;;;;5092384;28;20032;-66
2021/12/14 03:52:30;;;;;;;12.20;6.65;;;;;;;;;;5075943;28;20047;-63
2021/12/14 03:54:58;;;;;;;12.60;7.15;;;;;;;;;;5092251;28;20024;-66
2021/12/14 03:57:24;;;;;;;13.95;7.30;;;;;;;;;;5087311;28;20058;-62
2021/12/14 03:59:50;;;;;;;14.02;7.20;;;;;;;;;;5092989;28;20512;-63
2021/12/14 04:02:17;;;;;;;15.05;8.02;;;;;;;;;;5083022;28;20146;-63
2021/12/14 04:04:51;;;;;;;15.32;7.75;;;;;;;;;;5094062;28;20040;-63
2021/12/14 04:07:17;;;;;;;14.82;8.10;;;;;;;;;;5094585;28;20035;-63
2021/12/14 04:09:43;;;;;;;16.25;9.35;;;;;;;;;;5091839;28;20042;-63
2021/12/14 04:12:13;;;;;;;15.40;8.52;;;;;;;;;;5093725;28;20051;-63
2021/12/14 04:14:46;;;;;;;18.02;9.50;;;;;;;;;;5079985;28;20439;-64
2021/12/14 04:17:13;;;;;;;18.40;9.65;;;;;;;;;;5094027;28;20474;-63
2021/12/14 04:19:40;;;;;;;20.42;10.27;;;;;;;;;;5094300;28;20393;-63
2021/12/14 04:22:11;;;;;;;21.90;10.68;;;;;;;;;;5093906;28;20504;-63
2021/12/14 04:24:40;;;;;;;19.98;10.70;;;;;;;;;;5094416;28;20035;-64
2021/12/14 04:27:09;;;;;;;19.80;10.73;;;;;;;;;;5093562;28;20024;-64
2021/12/14 04:29:36;;;;;;;20.83;11.32;;;;;;;;;;5094361;28;20036;-64
2021/12/14 04:32:03;;;;;;;23.20;11.23;;;;;;;;;;5093319;28;20464;-65
2021/12/14 04:34:30;;;;;;;21.95;11.95;;;;;;;;;;5094204;28;20412;-64
2021/12/14 04:36:56;;;;;;;20.02;12.18;;;;;;;;;;5093329;28;20057;-64
2021/12/14 04:53:06;;;;;;;28.17;13.73;;;;;;;;;;5094133;28;20166;-64
2021/12/14 04:55:31;;;;;;;31.95;16.25;;;;;;;;;;5092526;28;20039;-65
2021/12/14 04:57:57;;;;;;;33.88;16.77;;;;;;;;;;5093610;28;20094;-65
2021/12/14 05:00:25;;;;;;;33.75;16.67;;;;;;;;;;5091929;28;20028;-65
2021/12/14 05:02:52;;;;;;;37.40;16.60;;;;;;;;;;5093296;28;20101;-64
2021/12/14 05:05:33;;;;;;;38.03;17.85;;;;;;;;;;5102211;28;20032;-64
2021/12/14 05:10:53;;;;;;;30.70;13.65;;;;;;;;;;5090346;28;19918;-64
2021/12/14 05:13:24;;;;;;;31.67;14.65;;;;;;;;;;5087788;28;20536;-64
2021/12/14 05:15:50;;;;;;;34.10;16.17;;;;;;;;;;5093750;28;20051;-64
2021/12/14 05:18:15;;;;;;;32.65;15.82;;;;;;;;;;5090895;28;20040;-64
2021/12/14 05:20:43;;;;;;;39.20;16.45;;;;;;;;;;5092177;28;20028;-64
2021/12/14 05:23:09;;;;;;;34.03;15.60;;;;;;;;;;5092530;28;20093;-66
2021/12/14 05:25:37;;;;;;;35.00;16.20;;;;;;;;;;5093406;28;20416;-65
2021/12/14 05:28:04;;;;;;;36.70;16.05;;;;;;;;;;5092670;28;20078;-69
2021/12/14 05:30:37;;;;;;;33.72;15.50;;;;;;;;;;5093464;28;20047;-64
2021/12/14 05:33:06;;;;;;;35.70;15.40;;;;;;;;;;5092867;28;20469;-68
2021/12/14 05:35:33;;;;;;;37.15;16.35;;;;;;;;;;5093309;28;20492;-64
2021/12/14 05:38:00;;;;;;;33.78;16.15;;;;;;;;;;5092846;28;20374;-65
2021/12/14 05:43:30;;;;;;;40.78;17.50;;;;;;;;;;5093126;28;20140;-66
2021/12/14 05:46:00;;;;;;;35.72;16.67;;;;;;;;;;5088128;28;20048;-65
2021/12/14 05:48:29;;;;;;;40.47;17.50;;;;;;;;;;5091326;28;20024;-64
2021/12/14 05:50:59;;;;;;;46.65;18.13;;;;;;;;;;5091322;28;20032;-65
2021/12/14 05:53:34;;;;;;;37.65;16.80;;;;;;;;;;5091350;28;20327;-64
2021/12/14 05:56:05;;;;;;;42.95;18.00;;;;;;;;;;5092756;28;20533;-64
2021/12/14 05:58:31;;;;;;;38.00;16.98;;;;;;;;;;5091658;28;20447;-64
2021/12/14 06:01:04;;;;;;;42.72;19.35;;;;;;;;;;5087872;28;20028;-66
2021/12/14 06:03:35;;;;;;;40.30;17.80;;;;;;;;;;5092297;28;20046;-65
2021/12/14 06:06:02;;;;;;;39.53;17.33;;;;;;;;;;5090182;28;20049;-64
2021/12/14 06:08:34;;;;;;;37.92;17.27;;;;;;;;;;5071554;28;20108;-70
2021/12/14 06:11:00;;;;;;;40.00;17.33;;;;;;;;;;5083766;28;20035;-66
2021/12/14 06:13:43;;;;;;;39.05;17.60;;;;;;;;;;5091540;28;20064;-65
2021/12/14 06:16:24;;;;;;;41.78;16.85;;;;;;;;;;5087453;28;20051;-65
2021/12/14 06:18:49;;;;;;;;;;;;;;;;;;5092210;28;20385;-66
2021/12/14 06:21:18;;;;;;;38.20;15.77;;;;;;;;;;5091464;28;20342;-66
2021/12/14 06:23:44;;;;;;;41.47;17.17;;;;;;;;;;5091951;28;20473;-66
2021/12/14 06:26:09;;;;;;;40.50;17.40;;;;;;;;;;5091434;28;20109;-66
2021/12/14 06:28:35;;;;;;;39.25;17.17;;;;;;;;;;5091666;28;20028;-67
2021/12/14 06:31:01;;;;;;;41.17;17.83;;;;;;;;;;5088602;28;20027;-65
2021/12/14 06:33:30;;;;;;;40.55;18.02;;;;;;;;;;5088585;28;20036;-65
2021/12/14 06:35:59;;;;;;;40.67;17.33;;;;;;;;;;5092059;28;20024;-65
2021/12/14 06:38:30;;;;;;;39.63;17.27;;;;;;;;;;5091134;28;20081;-66
2021/12/14 06:41:13;;;;;;;38.15;16.48;;;;;;;;;;5091366;28;20112;-67
2021/12/14 06:43:53;;;;;;;40.25;17.70;;;;;;;;;;5071845;28;20036;-66
2021/12/14 06:46:36;;;;;;;41.05;17.25;;;;;;;;;;5075393;28;20114;-66
2021/12/14 06:49:13;;;;;;;38.25;16.35;;;;;;;;;;5091609;28;20032;-67
2021/12/14 06:51:39;;;;;;;38.92;17.25;;;;;;;;;;5090427;28;20016;-66
2021/12/14 06:54:08;;;;;;;37.47;16.10;;;;;;;;;;5091758;28;20377;-72
2021/12/14 06:56:34;;;;;;;36.25;16.35;;;;;;;;;;5091351;28;20470;-67
2021/12/14 06:59:10;;;;;;;37.53;16.77;;;;;;;;;;5090084;28;20034;-66
2021/12/14 07:01:42;;;;;;;38.38;16.35;;;;;;;;;;5088923;28;20028;-66
2021/12/14 07:04:12;;;;;;;41.30;17.23;;;;;;;;;;5091192;28;20036;-71
2021/12/14 07:06:42;;;;;;;34.70;16.70;;;;;;;;;;5090015;28;20064;-65
2021/12/14 07:09:24;;;;;;;34.05;15.13;;;;;;;;;;5091395;28;20028;-70
2021/12/14 07:12:00;;;;;;;35.83;15.52;;;;;;;;;;5091046;28;20144;-66
2021/12/14 07:14:27;;;;;;;32.22;14.10;;;;;;;;;;5089852;28;20048;-66
2021/12/14 07:17:09;;;;;;;37.05;15.77;;;;;;;;;;5090962;28;20164;-67
2021/12/14 07:19:54;;;;;;;33.42;15.00;;;;;;;;;;5091263;28;20025;-64
2021/12/14 07:22:24;;;;;;;33.63;14.95;;;;;;;;;;5089475;28;20408;-65
2021/12/14 07:25:12;;;;;;;34.30;15.75;;;;;;;;;;5090610;28;20039;-66
2021/12/14 07:27:46;;;;;;;35.72;15.85;;;;;;;;;;5081908;28;20044;-66
2021/12/14 07:30:17;;;;;;;36.17;15.23;;;;;;;;;;5090634;28;20036;-66
2021/12/14 07:32:48;;;;;;;37.20;16.25;;;;;;;;;;5091117;28;20469;-65
2021/12/14 07:35:15;;;;;;;;;;;;;;;;;;5089613;28;20085;-64
2021/12/14 07:37:42;;;;;;;37.78;14.63;;;;;;;;;;5090291;28;19966;-67
2021/12/14 07:40:08;;;;;;;34.40;14.00;;;;;;;;;;5088181;28;20046;-70
2021/12/14 07:42:34;;;;;;;30.63;13.63;;;;;;;;;;5090442;28;20071;-66
2021/12/14 07:44:59;;;;;;;35.00;15.73;;;;;;;;;;5090053;28;20055;-66
2021/12/14 07:47:25;;;;;;;32.40;14.75;;;;;;;;;;5089932;28;20530;-66
2021/12/14 07:49:55;;;;;;;37.53;17.08;;;;;;;;;;5091526;28;20036;-65
2021/12/14 07:52:31;;;;;;;33.22;13.48;;;;;;;;;;5090422;28;20073;-66
2021/12/14 07:55:01;;;;;;;40.22;17.33;;;;;;;;;;5091040;28;20082;-65
2021/12/14 07:57:31;;;;;;;39.83;16.05;;;;;;;;;;5088800;28;20567;-65
2021/12/14 08:00:06;;;;;;;36.05;16.70;;;;;;;;;;5090883;28;20135;-64
2021/12/14 08:02:38;;;;;;;35.15;16.73;;;;;;;;;;5089576;28;20504;-67
2021/12/14 08:05:28;;;;;;;36.95;17.00;;;;;;;;;;5091047;28;20381;-64
2021/12/14 08:08:09;;;;;;;36.50;15.97;;;;;;;;;;5086687;28;20036;-67
2021/12/14 08:10:40;;;;;;;37.78;17.23;;;;;;;;;;5090018;28;20024;-65
2021/12/14 08:13:11;;;;;;;36.70;16.80;;;;;;;;;;5089970;28;20500;-66
2021/12/14 08:15:49;;;;;;;39.90;16.80;;;;;;;;;;5091815;28;20462;-66
2021/12/14 08:18:25;;;;;;;38.00;17.00;;;;;;;;;;5093860;28;20071;-65
2021/12/14 08:20:54;;;;;;;36.08;16.42;;;;;;;;;;5093026;28;20036;-65
2021/12/14 08:23:32;;;;;;;40.53;17.17;;;;;;;;;;5092744;28;20497;-65
2021/12/14 08:26:10;;;;;;;39.38;17.33;;;;;;;;;;5085693;28;20412;-67
2021/12/14 08:29:03;;;;;;;36.20;16.85;;;;;;;;;;5095100;28;20040;-65
2021/12/14 08:31:36;;;;;;;36.65;16.05;;;;;;;;;;5077318;28;20109;-65
2021/12/14 08:34:08;;;;;;;39.03;16.95;;;;;;;;;;5077101;28;20051;-65
2021/12/14 08:36:52;;;;;;;35.35;16.98;;;;;;;;;;5078362;28;20039;-65
2021/12/14 08:39:27;;;;;;;41.78;17.23;;;;;;;;;;5082457;28;20371;-65
2021/12/14 08:42:09;;;;;;;40.78;17.85;;;;;;;;;;5093801;28;20077;-66
2021/12/14 08:44:38;;;;;;;38.83;17.67;;;;;;;;;;5091948;28;20039;-64
2021/12/14 08:47:10;;;;;;;40.05;17.75;;;;;;;;;;5093409;28;20022;-66
2021/12/14 08:49:37;;;;;;;38.28;16.92;;;;;;;;;;5080896;28;20032;-66
2021/12/14 08:52:04;;;;;;;39.72;17.67;;;;;;;;;;5076672;28;20442;-66
2021/12/14 08:54:31;;;;;;;37.65;17.08;;;;;;;;;;5092979;28;20063;-66
2021/12/14 08:57:01;;;;;;;36.25;16.33;;;;;;;;;;5092141;28;20032;-65
2021/12/14 08:59:28;;;;;;;39.92;17.65;;;;;;;;;;5093150;28;20053;-67
2021/12/14 09:01:59;;;;;;;44.00;17.75;;;;;;;;;;5087080;28;20028;-66
2021/12/14 09:04:32;;;;;;;;;;;;;;;;;;5093193;28;20044;-64
2021/12/14 09:07:04;;;;;;;40.60;17.35;;;;;;;;;;5093683;28;19915;-67
2021/12/14 09:09:30;;;;;;;38.83;17.50;;;;;;;;;;5093383;28;20137;-65
2021/12/14 09:12:06;;;;;;;43.35;16.95;;;;;;;;;;5093578;28;20123;-66
2021/12/14 09:14:33;;;;;;;39.10;17.70;;;;;;;;;;5092769;28;20255;-68
2021/12/14 09:17:00;;;;;;;38.42;18.17;;;;;;;;;;5093238;28;20034;-66
2021/12/14 09:19:39;;;;;;;38.55;17.45;;;;;;;;;;5092761;28;20063;-67
2021/12/14 09:22:10;;;;;;;38.90;18.08;;;;;;;;;;5092445;28;20028;-66
2021/12/14 09:24:36;;;;;;;39.05;18.67;;;;;;;;;;5092722;28;20036;-66
2021/12/14 09:27:05;;;;;;;36.63;17.35;;;;;;;;;;5092565;28;20036;-64
2021/12/14 09:29:32;;;;;;;39.92;18.00;;;;;;;;;;5092690;28;20895;-64
2021/12/14 09:32:02;;;;;;;36.10;17.63;;;;;;;;;;5093065;28;20031;-66
2021/12/14 09:34:31;;;;;;;39.30;18.52;;;;;;;;;;5091233;28;20035;-64
2021/12/14 09:36:58;;;;;;;38.83;18.65;;;;;;;;;;5093288;28;20035;-67
2021/12/14 09:39:34;;;;;;;37.35;18.05;;;;;;;;;;5092300;28;20465;-68
2021/12/14 09:42:07;;;;;;;39.33;18.17;;;;;;;;;;5091900;28;20062;-66
2021/12/14 09:44:36;;;;;;;46.85;19.27;;;;;;;;;;5091406;28;20032;-66
2021/12/14 09:47:08;;;;;;;37.60;18.27;;;;;;;;;;5092956;28;20427;-66
2021/12/14 09:49:34;;;;;;;35.33;17.10;;;;;;;;;;5091950;28;20027;-66
2021/12/14 09:52:10;;;;;;;38.53;17.50;;;;;;;;;;5092941;28;20031;-66
2021/12/14 09:54:36;;;;;;;32.83;17.10;;;;;;;;;;5092116;28;20534;-66
2021/12/14 09:57:17;;;;;;;39.15;17.00;;;;;;;;;;5092625;28;20032;-65
2021/12/14 09:59:43;;;;;;;36.88;17.15;;;;;;;;;;5090077;28;20032;-64
2021/12/14 10:02:13;;;;;;;39.55;18.00;;;;;;;;;;5092484;28;20118;-66
2021/12/14 10:04:54;;;;;;;37.97;17.73;;;;;;;;;;5091937;28;20363;-66
2021/12/14 10:07:22;;;;;;;36.00;17.20;;;;;;;;;;5092101;28;20052;-67
2021/12/14 10:09:49;;;;;;;33.97;16.98;;;;;;;;;;5091435;28;20036;-64
2021/12/14 10:15:07;;;;;;;34.40;17.52;;;;;;;;;;5092137;28;20381;-66
2021/12/14 10:17:33;;;;;;;37.17;17.92;;;;;;;;;;5091808;28;20035;-66
2021/12/14 10:19:59;;;;;;;35.70;17.08;;;;;;;;;;5091204;28;20122;-66
2021/12/14 10:22:31;;;;;;;34.38;17.35;;;;;;;;;;5090572;28;20461;-66
2021/12/14 10:24:59;;;;;;;35.53;16.48;;;;;;;;;;5092515;28;20479;-67
2021/12/14 10:27:29;;;;;;;38.70;17.52;;;;;;;;;;5091418;28;20036;-66
2021/12/14 10:29:56;;;;;;;41.83;17.63;;;;;;;;;;5092075;28;20540;-66
2021/12/14 10:32:28;;;;;;;38.20;17.52;;;;;;;;;;5090794;28;20088;-66
2021/12/14 10:34:58;;;;;;;36.65;17.27;;;;;;;;;;5092479;28;20047;-64
2021/12/14 10:37:40;;;;;;;39.53;17.83;;;;;;;;;;5091344;28;20055;-66
2021/12/14 10:45:32;;;;;;;34.28;17.25;;;;;;;;;;5091240;28;20038;-66
2021/12/14 10:47:58;;;;;;;33.10;16.33;;;;;;;;;;5092072;28;20115;-63
2021/12/14 10:50:27;;;;;;;35.28;16.95;;;;;;;;;;5091547;28;20418;-65
2021/12/14 10:52:53;;;;;;;32.90;17.10;;;;;;;;;;5091743;28;20036;-65
2021/12/14 10:55:36;;;;;;;37.05;16.98;;;;;;;;;;5091292;28;20086;-70
2021/12/14 10:58:05;;;;;;;34.83;16.08;;;;;;;;;;5089414;28;20442;-65
2021/12/14 11:00:39;;;;;;;37.42;17.77;;;;;;;;;;5086282;28;20032;-65
2021/12/14 11:03:11;;;;;;;35.90;18.00;;;;;;;;;;5077505;28;20098;-65
2021/12/14 11:05:39;;;;;;;33.28;15.60;;;;;;;;;;5069428;28;20033;-65
2021/12/14 11:08:18;;;;;;;32.53;15.70;;;;;;;;;;5086355;28;20059;-65
2021/12/14 11:10:44;;;;;;;36.97;17.50;;;;;;;;;;5090901;28;20373;-65
2021/12/14 11:13:12;;;;;;;42.13;17.95;;;;;;;;;;5090832;28;20047;-62
2021/12/14 11:15:45;;;;;;;38.67;17.60;;;;;;;;;;5084612;28;20522;-61
2021/12/14 11:18:20;;;;;;;37.72;18.92;;;;;;;;;;5090805;28;20082;-62
2021/12/14 11:20:58;;;;;;;39.33;18.63;;;;;;;;;;5089378;28;20032;-63
2021/12/14 11:23:34;;;;;;;41.50;19.33;;;;;;;;;;5090529;28;20032;-63
2021/12/14 11:26:02;;;;;;;41.13;19.65;;;;;;;;;;5091800;28;20036;-65
2021/12/14 11:28:33;;;;;;;45.08;19.23;;;;;;;;;;5090830;28;20043;-64
2021/12/14 11:31:37;;;;;;;36.78;16.98;;;;;;;;;;5087460;28;20039;-63
2021/12/14 11:34:11;;;;;;;44.33;19.83;;;;;;;;;;5055639;28;20032;-64
2021/12/14 11:36:38;;;;;;;43.45;20.83;;;;;;;;;;5090215;28;20031;-64
2021/12/14 11:39:07;;;;;;;40.65;19.73;;;;;;;;;;5091500;28;20028;-63
2021/12/14 11:41:38;;;;;;;45.72;20.00;;;;;;;;;;5090727;28;20055;-63
2021/12/14 11:44:12;;;;;;;41.00;19.73;;;;;;;;;;5090830;28;20078;-63
2021/12/14 11:46:51;;;;;;;33.50;16.13;;;;;;;;;;5090378;28;20478;-64
2021/12/14 11:49:17;;;;;;;42.30;20.00;;;;;;;;;;5089585;28;20020;-65
2021/12/14 11:51:43;;;;;;;41.35;19.83;;;;;;;;;;5094597;28;20039;-65
2021/12/14 11:54:10;;;;;;;44.08;19.05;;;;;;;;;;5094006;28;20031;-64
2021/12/14 11:56:36;;;;;;;44.22;19.23;;;;;;;;;;5090761;28;20152;-63
2021/12/14 11:59:07;;;;;;;42.90;20.40;;;;;;;;;;5094497;28;20489;-65
2021/12/14 12:01:47;;;;;;;40.22;19.17;;;;;;;;;;5093782;28;20024;-66
2021/12/14 12:04:32;;;;;;;39.80;19.13;;;;;;;;;;5094921;28;20113;-64
2021/12/14 12:09:50;;;;;;;40.08;17.23;;;;;;;;;;5094395;28;20089;-68
2021/12/14 12:12:25;;;;;;;39.35;18.50;;;;;;;;;;5094982;28;20040;-64
2021/12/14 12:14:58;;;;;;;38.45;17.85;;;;;;;;;;5094095;28;20036;-64
2021/12/14 12:17:47;;;;;;;38.65;18.25;;;;;;;;;;5092981;28;20107;-70
2021/12/14 12:20:32;;;;;;;38.63;18.75;;;;;;;;;;5092376;28;20031;-65
2021/12/14 12:23:08;;;;;;;36.85;17.85;;;;;;;;;;5093544;28;20028;-66
2021/12/14 12:25:36;;;;;;;40.08;18.45;;;;;;;;;;5094116;28;20043;-65
2021/12/14 12:28:07;;;;;;;45.35;19.80;;;;;;;;;;5094524;28;20111;-66
2021/12/14 12:30:42;;;;;;;38.90;18.13;;;;;;;;;;5093808;28;20047;-66
2021/12/14 12:33:13;;;;;;;32.47;16.27;;;;;;;;;;5094016;28;20055;-66
2021/12/14 12:35:49;;;;;;;39.20;18.35;;;;;;;;;;5093571;28;20024;-67
2021/12/14 12:38:38;;;;;;;38.60;17.83;;;;;;;;;;5093364;28;20362;-65
2021/12/14 12:41:09;;;;;;;43.85;18.98;;;;;;;;;;5093010;28;20024;-63
2021/12/14 12:43:51;;;;;;;41.40;18.30;;;;;;;;;;5093290;28;20497;-63
2021/12/14 12:46:37;;;;;;;39.65;19.23;;;;;;;;;;5092879;28;20438;-65
2021/12/14 12:49:23;;;;;;;45.10;20.27;;;;;;;;;;5093225;28;20040;-65
2021/12/14 12:51:55;;;;;;;41.45;20.52;;;;;;;;;;5093530;28;20024;-64
2021/12/14 12:54:44;;;;;;;45.58;20.08;;;;;;;;;;5091950;28;20071;-66
2021/12/14 12:57:19;;;;;;;51.47;21.42;;;;;;;;;;5093773;28;20438;-64
2021/12/14 12:59:54;;;;;;;48.42;22.50;;;;;;;;;;5092633;28;20032;-63
2021/12/14 13:02:34;;;;;;;43.13;18.40;;;;;;;;;;5092346;28;20032;-67
2021/12/14 13:05:15;;;;;;;51.60;23.70;;;;;;;;;;5094323;28;20032;-64
2021/12/14 13:07:48;;;;;;;60.35;25.52;;;;;;;;;;5092972;28;20062;-67
2021/12/14 13:10:29;;;;;;;53.03;21.02;;;;;;;;;;5092608;28;20038;-65
2021/12/14 13:13:04;;;;;;;57.95;24.08;;;;;;;;;;5093514;28;20036;-64
2021/12/14 13:15:37;;;;;;;58.33;25.60;;;;;;;;;;5091500;28;20068;-65
2021/12/14 13:18:24;;;;;;;64.95;26.00;;;;;;;;;;5095545;28;20024;-67
2021/12/14 13:20:58;;;;;;;65.43;26.30;;;;;;;;;;5095754;28;20031;-65
2021/12/14 13:23:38;;;;;;;72.10;27.90;;;;;;;;;;5096845;28;20481;-67
2021/12/14 13:26:22;;;;;;;60.20;25.35;;;;;;;;;;5092734;28;20028;-63
2021/12/14 13:28:48;;;;;;;69.10;26.70;;;;;;;;;;5091958;28;20024;-61
2021/12/14 13:31:31;;;;;;;63.97;27.15;;;;;;;;;;5089151;28;20028;-66
2021/12/14 13:33:58;;;;;;;59.40;23.83;;;;;;;;;;5091470;28;20040;-62
2021/12/14 13:36:24;;;;;;;58.20;25.92;;;;;;;;;;5090679;28;20074;-66
2021/12/14 13:38:50;;;;;;;62.55;24.98;;;;;;;;;;5082654;28;20437;-66
2021/12/14 13:41:40;;;;;;;46.55;19.83;;;;;;;;;;5092382;28;20032;-65
2021/12/14 13:44:05;;;;;;;59.85;26.30;;;;;;;;;;5092745;28;20035;-65
2021/12/14 13:46:31;;;;;;;57.75;23.63;;;;;;;;;;5089439;28;20036;-65
2021/12/14 13:48:57;;;;;;;59.17;25.98;;;;;;;;;;5092242;28;20436;-63
2021/12/14 13:51:26;;;;;;;56.90;24.60;;;;;;;;;;5092308;28;20115;-65
2021/12/14 13:53:55;;;;;;;54.78;24.58;;;;;;;;;;5091816;28;20035;-64
2021/12/14 13:56:25;;;;;;;52.63;24.23;;;;;;;;;;5092397;28;20063;-68
2021/12/14 13:58:56;;;;;;;49.97;21.27;;;;;;;;;;5090408;28;20063;-65
2021/12/14 14:01:24;;;;;;;;;;;;;;;;;;5088378;28;20070;-63
2021/12/14 14:04:00;;;;;;;40.78;18.67;;;;;;;;;;5089093;28;20431;-63
2021/12/14 14:06:26;;;;;;;49.58;22.10;;;;;;;;;;5092178;28;20473;-70
2021/12/14 14:09:12;;;;;;;55.15;23.30;;;;;;;;;;5091731;28;20036;-66
2021/12/14 14:11:52;;;;;;;46.40;21.52;;;;;;;;;;5090355;28;20036;-62
2021/12/14 14:14:17;;;;;;;44.65;21.63;;;;;;;;;;5078866;28;20025;-65
2021/12/14 14:16:51;;;;;;;42.17;21.25;;;;;;;;;;5071657;28;20029;-63
2021/12/14 14:19:21;;;;;;;43.72;20.58;;;;;;;;;;5092183;28;20531;-64
2021/12/14 14:22:01;;;;;;;43.05;19.90;;;;;;;;;;5091634;28;20028;-63
2021/12/14 14:24:35;;;;;;;45.88;21.73;;;;;;;;;;5092175;28;20389;-63
2021/12/14 14:27:03;;;;;;;41.75;21.02;;;;;;;;;;5091155;28;20478;-65
2021/12/14 14:29:47;;;;;;;42.65;20.05;;;;;;;;;;5091444;28;20052;-70
2021/12/14 14:35:10;;;;;;;43.88;21.17;;;;;;;;;;5070801;28;20036;-64
2021/12/14 14:37:38;;;;;;;39.10;19.42;;;;;;;;;;5082062;28;20024;-65
2021/12/14 14:40:11;;;;;;;37.35;18.35;;;;;;;;;;5091118;28;20384;-62
2021/12/14 14:42:47;;;;;;;41.13;19.50;;;;;;;;;;5091615;28;20032;-62
2021/12/14 14:45:20;;;;;;;38.20;18.90;;;;;;;;;;5093125;28;20469;-62
2021/12/14 14:47:46;;;;;;;42.88;19.52;;;;;;;;;;5090255;28;20501;-62
2021/12/14 14:50:31;;;;;;;42.17;19.77;;;;;;;;;;5091868;28;20070;-63
2021/12/14 14:53:03;;;;;;;41.13;19.42;;;;;;;;;;5090756;28;20028;-62
2021/12/14 14:55:34;;;;;;;39.55;20.17;;;;;;;;;;5091123;28;20035;-68
2021/12/14 14:58:14;;;;;;;36.38;18.25;;;;;;;;;;5091988;28;20036;-62
2021/12/14 15:01:06;;;;;;;37.90;19.52;;;;;;;;;;5090921;28;20389;-62
2021/12/14 15:03:43;;;;;;;40.17;19.33;;;;;;;;;;5091038;28;20396;-62
2021/12/14 15:06:22;;;;;;;42.75;21.27;;;;;;;;;;5090681;28;20036;-62
2021/12/14 15:09:14;;;;;;;39.40;17.77;;;;;;;;;;5090535;28;20027;-62
2021/12/14 15:11:42;;;;;;;41.92;19.00;;;;;;;;;;5074965;28;20051;-63
2021/12/14 15:14:13;;;;;;;40.22;19.15;;;;;;;;;;5091088;28;20032;-62
2021/12/14 15:16:41;;;;;;;42.95;19.17;;;;;;;;;;5089894;28;20034;-63
2021/12/14 15:19:07;;;;;;;42.28;21.17;;;;;;;;;;5091364;28;20039;-64
2021/12/14 15:21:40;;;;;;;43.85;19.02;;;;;;;;;;5090903;28;20036;-69
2021/12/14 15:24:24;;;;;;;38.20;18.75;;;;;;;;;;5091300;28;20078;-63
2021/12/14 15:27:08;;;;;;;39.00;19.67;;;;;;;;;;5090158;28;20050;-63
2021/12/14 15:29:40;;;;;;;39.13;18.58;;;;;;;;;;5087660;28;20032;-68
2021/12/14 15:32:14;;;;;;;39.47;18.70;;;;;;;;;;5086454;28;20502;-62
2021/12/14 15:35:07;;;;;;;45.72;19.98;;;;;;;;;;5090099;28;20115;-63